Time,TemperatureF,DewpointF,PressureIn,WindDirection,WindDirectionDegrees,WindSpeedMPH,WindSpeedGustMPH,Humidity,HourlyPrecipIn,Conditions,Clouds,dailyrainin,SoftwareType,DateUTC
2013-09-21 00:13:00,64.0,63.0,29.86,NNE,24,0.0,2.0,96,0.01,,,0.62,,2013-09-21 05:13:00,
2013-09-21 00:23:00,64.0,63.0,29.86,NNW,344,0.0,5.0,96,0.00,,,0.62,,2013-09-21 05:23:00,
2013-09-21 00:43:00,64.0,63.0,29.86,NNW,340,0.0,4.0,96,0.00,,,0.62,,2013-09-21 05:43:00,
2013-09-21 00:53:00,64.0,63.0,29.86,NW,321,3.0,6.0,96,0.00,,,0.62,,2013-09-21 05:53:00,
2013-09-21 01:12:00,64.0,63.0,29.86,NW,304,5.0,10.0,95,0.00,,,0.62,,2013-09-21 06:12:00,
2013-09-21 01:22:00,63.0,61.0,29.87,North,350,2.0,9.0,94,0.00,,,0.62,,2013-09-21 06:22:00,
2013-09-21 01:42:00,63.0,61.0,29.87,North,9,4.0,10.0,93,0.00,,,0.62,,2013-09-21 06:42:00,
2013-09-21 01:53:00,63.0,60.0,29.87,North,360,0.0,1.0,91,0.00,,,0.62,,2013-09-21 06:53:00,
2013-09-21 02:11:00,62.0,59.0,29.87,North,5,0.0,6.0,90,0.01,,,0.63,,2013-09-21 07:11:00,
2013-09-21 02:22:00,61.0,58.0,29.86,NW,322,0.0,9.0,90,0.01,,,0.63,,2013-09-21 07:22:00,
2013-09-21 02:42:00,61.0,58.0,29.86,NNW,347,1.0,5.0,90,0.01,,,0.63,,2013-09-21 07:42:00,
2013-09-21 02:52:00,61.0,58.0,29.86,NNE,12,0.0,5.0,90,0.01,,,0.63,,2013-09-21 07:52:00,
2013-09-21 03:13:00,60.0,57.0,29.85,NW,306,1.0,6.0,90,0.00,,,0.63,,2013-09-21 08:13:00,
2013-09-21 03:22:00,60.0,57.0,29.85,NW,314,0.0,4.0,90,0.00,,,0.63,,2013-09-21 08:22:00,
2013-09-21 03:42:00,59.0,56.0,29.85,NW,322,0.0,4.0,90,0.00,,,0.63,,2013-09-21 08:42:00,
2013-09-21 03:52:00,59.0,56.0,29.85,NNW,328,0.0,3.0,91,0.00,,,0.63,,2013-09-21 08:52:00,
2013-09-21 04:11:00,58.0,56.0,29.85,NW,320,0.0,1.0,92,0.00,,,0.63,,2013-09-21 09:11:00,
2013-09-21 04:22:00,58.0,56.0,29.85,NNW,339,0.0,0.0,93,0.00,,,0.63,,2013-09-21 09:22:00,
2013-09-21 04:43:00,57.0,55.0,29.86,WNW,290,0.0,4.0,93,0.00,,,0.63,,2013-09-21 09:43:00,
2013-09-21 04:54:00,57.0,55.0,29.86,WNW,292,0.0,4.0,92,0.00,,,0.63,,2013-09-21 09:54:00,
2013-09-21 05:12:00,57.0,55.0,29.86,NW,321,0.0,3.0,92,0.00,,,0.63,,2013-09-21 10:12:00,
2013-09-21 05:23:00,56.0,54.0,29.87,NNW,329,0.0,3.0,92,0.00,,,0.63,,2013-09-21 10:23:00,
2013-09-21 05:42:00,56.0,54.0,29.87,North,355,0.0,4.0,93,0.00,,,0.63,,2013-09-21 10:42:00,
2013-09-21 05:52:00,56.0,54.0,29.88,NW,316,0.0,2.0,93,0.00,,,0.63,,2013-09-21 10:52:00,
2013-09-21 06:11:00,55.0,53.0,29.88,NNW,343,0.0,0.0,93,0.00,,,0.63,,2013-09-21 11:11:00,
2013-09-21 06:23:00,55.0,53.0,29.88,NNW,331,0.0,0.0,94,0.00,,,0.63,,2013-09-21 11:23:00,
2013-09-21 06:52:00,54.0,52.0,29.89,North,355,0.0,0.0,94,0.00,,,0.63,,2013-09-21 11:52:00,
2013-09-21 07:12:00,54.0,52.0,29.90,North,355,0.0,0.0,94,0.00,,,0.63,,2013-09-21 12:12:00,
2013-09-21 07:21:00,54.0,52.0,29.90,North,355,0.0,0.0,94,0.00,,,0.63,,2013-09-21 12:21:00,
2013-09-21 07:42:00,54.0,52.0,29.90,NNW,332,0.0,0.0,94,0.00,,,0.63,,2013-09-21 12:42:00,
2013-09-21 07:52:00,55.0,54.0,29.90,North,355,0.0,0.0,95,0.00,,,0.63,,2013-09-21 12:52:00,
2013-09-21 08:11:00,55.0,53.0,29.91,NNW,347,1.0,5.0,94,0.00,,,0.63,,2013-09-21 13:11:00,
2013-09-21 08:21:00,56.0,54.0,29.91,North,350,2.0,7.0,94,0.00,,,0.63,,2013-09-21 13:21:00,
2013-09-21 08:42:00,57.0,55.0,29.91,North,355,1.0,5.0,92,0.00,,,0.63,,2013-09-21 13:42:00,
2013-09-21 08:52:00,58.0,55.0,29.91,NNW,333,1.0,5.0,91,0.00,,,0.63,,2013-09-21 13:52:00,
2013-09-21 09:11:00,59.0,55.0,29.92,NNW,348,1.0,6.0,88,0.00,,,0.63,,2013-09-21 14:11:00,
2013-09-21 09:22:00,59.0,55.0,29.92,North,5,2.0,8.0,86,0.00,,,0.63,,2013-09-21 14:22:00,
2013-09-21 09:42:00,60.0,55.0,29.92,NW,321,2.0,9.0,84,0.00,,,0.63,,2013-09-21 14:42:00,
2013-09-21 09:52:00,60.0,55.0,29.92,West,279,4.0,9.0,83,0.00,,,0.63,,2013-09-21 14:52:00,
2013-09-21 10:12:00,61.0,55.0,29.92,WNW,301,4.0,9.0,82,0.00,,,0.63,,2013-09-21 15:12:00,
2013-09-21 10:22:00,62.0,56.0,29.92,NW,321,5.0,9.0,80,0.00,,,0.60,,2013-09-21 15:22:00,
2013-09-21 10:44:00,63.0,56.0,29.92,North,5,5.0,10.0,78,0.00,,,0.60,,2013-09-21 15:44:00,
2013-09-21 10:55:00,63.0,55.0,29.92,West,279,6.0,10.0,76,0.00,,,0.60,,2013-09-21 15:55:00,
2013-09-21 11:14:00,64.0,56.0,29.93,WNW,294,0.0,12.0,75,0.00,,,0.60,,2013-09-21 16:14:00,
2013-09-21 11:24:00,64.0,55.0,29.93,West,274,4.0,9.0,73,0.00,,,0.47,,2013-09-21 16:24:00,
2013-09-21 11:43:00,65.0,55.0,29.92,NNW,340,7.0,13.0,69,0.00,,,0.47,,2013-09-21 16:43:00,
2013-09-21 11:54:00,65.0,54.0,29.92,NW,326,7.0,14.0,67,0.00,,,0.47,,2013-09-21 16:54:00,
2013-09-21 12:12:00,65.0,55.0,29.92,North,5,5.0,13.0,69,0.00,,,0.47,,2013-09-21 17:12:00,
2013-09-21 12:23:00,67.0,54.0,29.92,NNE,32,6.0,11.0,63,0.00,,,0.36,,2013-09-21 17:23:00,
2013-09-21 12:52:00,68.0,54.0,29.91,West,275,1.0,10.0,62,0.00,,,0.36,,2013-09-21 17:52:00,
2013-09-21 13:12:00,67.0,54.0,29.92,WNW,294,5.0,10.0,62,0.00,,,0.36,,2013-09-21 18:12:00,
2013-09-21 13:22:00,67.0,54.0,29.91,ESE,107,1.0,8.0,63,0.00,,,0.25,,2013-09-21 18:22:00,
2013-09-21 13:42:00,68.0,53.0,29.91,NNE,15,6.0,11.0,58,0.00,,,0.25,,2013-09-21 18:42:00,
2013-09-21 13:52:00,68.0,54.0,29.90,NNE,22,5.0,11.0,61,0.00,,,0.25,,2013-09-21 18:52:00,
2013-09-21 14:11:00,69.0,53.0,29.90,NNW,329,4.0,11.0,56,0.00,,,0.25,,2013-09-21 19:11:00,
2013-09-21 14:21:00,70.0,54.0,29.89,North,9,4.0,9.0,56,0.00,,,0.25,,2013-09-21 19:21:00,
2013-09-21 14:42:00,70.0,54.0,29.89,NW,325,5.0,12.0,56,0.00,,,0.25,,2013-09-21 19:42:00,
2013-09-21 14:52:00,70.0,53.0,29.89,NE,48,7.0,12.0,54,0.00,,,0.25,,2013-09-21 19:52:00,
2013-09-21 15:12:00,69.0,53.0,29.89,NNW,343,0.0,7.0,56,0.00,,,0.25,,2013-09-21 20:12:00,
2013-09-21 15:22:00,70.0,53.0,29.88,North,355,0.0,8.0,55,0.00,,,0.22,,2013-09-21 20:22:00,
2013-09-21 15:42:00,70.0,53.0,29.89,NNW,344,6.0,10.0,54,0.00,,,0.22,,2013-09-21 20:42:00,
2013-09-21 15:52:00,70.0,51.0,29.88,NW,310,5.0,11.0,51,0.00,,,0.22,,2013-09-21 20:52:00,
2013-09-21 16:12:00,70.0,52.0,29.88,NNE,13,6.0,13.0,53,0.00,,,0.22,,2013-09-21 21:12:00,
2013-09-21 16:22:00,69.0,52.0,29.88,North,360,1.0,10.0,55,0.00,,,0.20,,2013-09-21 21:22:00,
2013-09-21 16:44:00,68.0,52.0,29.88,NE,46,0.0,8.0,56,0.00,,,0.20,,2013-09-21 21:44:00,
2013-09-21 16:54:00,70.0,52.0,29.88,NNE,16,0.0,8.0,52,0.00,,,0.20,,2013-09-21 21:54:00,
2013-09-21 17:13:00,69.0,52.0,29.88,West,280,0.0,3.0,54,0.00,,,0.20,,2013-09-21 22:13:00,
2013-09-21 17:23:00,70.0,53.0,29.89,WNW,299,0.0,6.0,54,0.00,,,0.16,,2013-09-21 22:23:00,
2013-09-21 17:43:00,70.0,52.0,29.89,North,11,0.0,8.0,52,0.00,,,0.16,,2013-09-21 22:43:00,
2013-09-21 17:53:00,67.0,50.0,29.89,NNW,342,0.0,0.0,55,0.00,,,0.16,,2013-09-21 22:53:00,
2013-09-21 18:13:00,67.0,51.0,29.89,North,350,0.0,3.0,57,0.00,,,0.16,,2013-09-21 23:13:00,
2013-09-21 18:23:00,67.0,52.0,29.89,NW,325,0.0,2.0,58,0.00,,,0.13,,2013-09-21 23:23:00,
2013-09-21 18:42:00,66.0,51.0,29.90,NNW,332,0.0,3.0,59,0.00,,,0.13,,2013-09-21 23:42:00,
2013-09-21 18:53:00,65.0,51.0,29.90,North,360,0.0,0.0,61,0.00,,,0.13,,2013-09-21 23:53:00,
2013-09-21 19:12:00,65.0,52.0,29.90,NNW,342,0.0,0.0,63,0.00,,,0.13,,2013-09-22 00:12:00,
2013-09-21 19:22:00,63.0,52.0,29.90,NNW,342,0.0,0.0,67,0.00,,,0.11,,2013-09-22 00:22:00,
2013-09-21 19:43:00,62.0,53.0,29.90,NNW,342,0.0,0.0,72,0.00,,,0.11,,2013-09-22 00:43:00,
2013-09-21 19:52:00,61.0,54.0,29.90,NNW,342,0.0,0.0,77,0.00,,,0.11,,2013-09-22 00:52:00,
2013-09-21 20:12:00,59.0,53.0,29.91,NNW,342,0.0,0.0,81,0.00,,,0.11,,2013-09-22 01:12:00,
2013-09-21 20:21:00,58.0,53.0,29.91,NNW,342,0.0,0.0,83,0.00,,,0.09,,2013-09-22 01:21:00,
2013-09-21 20:42:00,57.0,53.0,29.91,NNW,342,0.0,0.0,86,0.00,,,0.09,,2013-09-22 01:42:00,
2013-09-21 20:52:00,57.0,53.0,29.92,NNW,342,0.0,0.0,87,0.00,,,0.09,,2013-09-22 01:52:00,
2013-09-21 21:12:00,56.0,52.0,29.92,NNW,342,0.0,0.0,88,0.00,,,0.09,,2013-09-22 02:12:00,
2013-09-21 21:22:00,56.0,52.0,29.92,NNW,342,0.0,0.0,88,0.00,,,0.08,,2013-09-22 02:22:00,
2013-09-21 21:42:00,57.0,53.0,29.93,NNW,342,0.0,0.0,87,0.00,,,0.08,,2013-09-22 02:42:00,
2013-09-21 21:52:00,58.0,54.0,29.93,NNW,342,0.0,0.0,85,0.00,,,0.08,,2013-09-22 02:52:00,
2013-09-21 22:12:00,58.0,53.0,29.93,NNW,342,0.0,0.0,84,0.00,,,0.08,,2013-09-22 03:12:00,
2013-09-21 22:22:00,57.0,52.0,29.93,NNW,342,0.0,0.0,84,0.00,,,0.06,,2013-09-22 03:22:00,
2013-09-21 22:44:00,57.0,52.0,29.93,NNW,342,0.0,0.0,84,0.00,,,0.06,,2013-09-22 03:44:00,
2013-09-21 22:54:00,56.0,52.0,29.93,NNW,342,0.0,0.0,86,0.00,,,0.06,,2013-09-22 03:54:00,
2013-09-21 23:02:00,-999.0,-99.9,29.93,NNW,342,0.0,0.0,-999,-99.99,,,-99.99,,2013-09-22 04:02:00,
2013-09-21 23:14:00,56.0,52.0,29.93,NNW,342,0.0,0.0,86,0.00,,,0.06,,2013-09-22 04:14:00,
2013-09-21 23:23:00,56.0,52.0,29.93,NNW,342,0.0,0.0,87,0.00,,,0.01,,2013-09-22 04:23:00,
2013-09-21 23:44:00,55.0,52.0,29.94,NNW,342,0.0,0.0,88,0.00,,,0.01,,2013-09-22 04:44:00,
2013-09-21 23:54:00,55.0,52.0,29.94,NNW,342,0.0,0.0,88,0.00,,,0.01,,2013-09-22 04:54:00,